sensor_id;sensor_type;location;lat;lon;timestamp;temperature;humidity
44271;DHT22;29963;44.594;11.368;2023-02-15T00:01:11;7.60;99.90
44271;DHT22;29963;44.594;11.368;2023-02-15T00:03:37;7.50;99.90
44271;DHT22;29963;44.594;11.368;2023-02-15T00:06:04;7.50;99.90
44271;DHT22;29963;44.594;11.368;2023-02-15T00:08:30;7.50;99.90
44271;DHT22;29963;44.594;11.368;2023-02-15T00:11:10;7.50;99.90
44271;DHT22;29963;44.594;11.368;2023-02-15T00:13:36;7.60;99.90
44271;DHT22;29963;44.594;11.368;2023-02-15T00:16:05;7.60;99.90
44271;DHT22;29963;44.594;11.368;2023-02-15T00:18:31;7.50;99.90
44271;DHT22;29963;44.594;11.368;2023-02-15T00:20:57;7.50;99.90
44271;DHT22;29963;44.594;11.368;2023-02-15T00:23:23;7.40;99.90
44271;DHT22;29963;44.594;11.368;2023-02-15T00:25:48;7.40;99.90
44271;DHT22;29963;44.594;11.368;2023-02-15T00:28:14;7.40;99.90
44271;DHT22;29963;44.594;11.368;2023-02-15T00:30:39;7.40;99.90
44271;DHT22;29963;44.594;11.368;2023-02-15T00:33:05;7.40;99.90
44271;DHT22;29963;44.594;11.368;2023-02-15T00:35:30;7.30;99.90
44271;DHT22;29963;44.594;11.368;2023-02-15T00:37:56;7.20;99.90
44271;DHT22;29963;44.594;11.368;2023-02-15T00:40:22;7.20;99.90
44271;DHT22;29963;44.594;11.368;2023-02-15T00:42:47;7.10;99.90
44271;DHT22;29963;44.594;11.368;2023-02-15T00:45:13;7.00;99.90
44271;DHT22;29963;44.594;11.368;2023-02-15T00:47:38;7.00;99.90
44271;DHT22;29963;44.594;11.368;2023-02-15T00:50:05;6.90;99.90
44271;DHT22;29963;44.594;11.368;2023-02-15T00:52:30;6.90;99.90
44271;DHT22;29963;44.594;11.368;2023-02-15T00:54:56;6.90;99.90
44271;DHT22;29963;44.594;11.368;2023-02-15T00:57:22;7.00;99.90
44271;DHT22;29963;44.594;11.368;2023-02-15T00:59:47;7.00;99.90
44271;DHT22;29963;44.594;11.368;2023-02-15T01:02:13;7.00;99.90
44271;DHT22;29963;44.594;11.368;2023-02-15T01:04:38;7.00;99.90
44271;DHT22;29963;44.594;11.368;2023-02-15T01:07:04;7.00;99.90
44271;DHT22;29963;44.594;11.368;2023-02-15T01:09:30;7.00;99.90
44271;DHT22;29963;44.594;11.368;2023-02-15T01:11:55;7.00;99.90
44271;DHT22;29963;44.594;11.368;2023-02-15T01:14:21;7.00;99.90
44271;DHT22;29963;44.594;11.368;2023-02-15T01:16:46;7.00;99.90
44271;DHT22;29963;44.594;11.368;2023-02-15T01:19:12;7.00;99.90
44271;DHT22;29963;44.594;11.368;2023-02-15T01:21:37;7.00;99.90
44271;DHT22;29963;44.594;11.368;2023-02-15T01:24:11;7.00;99.90
44271;DHT22;29963;44.594;11.368;2023-02-15T01:26:37;7.00;99.90
44271;DHT22;29963;44.594;11.368;2023-02-15T01:29:03;6.90;99.90
44271;DHT22;29963;44.594;11.368;2023-02-15T01:31:28;6.80;99.90
44271;DHT22;29963;44.594;11.368;2023-02-15T01:33:54;6.70;99.90
44271;DHT22;29963;44.594;11.368;2023-02-15T01:36:19;6.70;99.90
44271;DHT22;29963;44.594;11.368;2023-02-15T01:38:45;6.70;99.90
44271;DHT22;29963;44.594;11.368;2023-02-15T01:41:11;6.70;99.90
44271;DHT22;29963;44.594;11.368;2023-02-15T01:43:48;6.70;99.90
44271;DHT22;29963;44.594;11.368;2023-02-15T01:46:16;6.60;99.90
44271;DHT22;29963;44.594;11.368;2023-02-15T01:48:48;6.60;99.90
44271;DHT22;29963;44.594;11.368;2023-02-15T01:51:18;6.60;99.90
44271;DHT22;29963;44.594;11.368;2023-02-15T01:54:01;6.60;99.90
44271;DHT22;29963;44.594;11.368;2023-02-15T01:56:31;6.50;99.90
44271;DHT22;29963;44.594;11.368;2023-02-15T01:59:00;6.50;99.90
44271;DHT22;29963;44.594;11.368;2023-02-15T02:01:28;6.50;99.90
44271;DHT22;29963;44.594;11.368;2023-02-15T02:06:39;6.40;99.90
44271;DHT22;29963;44.594;11.368;2023-02-15T02:09:05;6.40;99.90
44271;DHT22;29963;44.594;11.368;2023-02-15T02:11:32;6.40;99.90
44271;DHT22;29963;44.594;11.368;2023-02-15T02:13:58;6.40;99.90
44271;DHT22;29963;44.594;11.368;2023-02-15T02:19:39;6.30;99.90
44271;DHT22;29963;44.594;11.368;2023-02-15T02:34:28;6.00;99.90
44271;DHT22;29963;44.594;11.368;2023-02-15T02:42:02;6.00;99.90
44271;DHT22;29963;44.594;11.368;2023-02-15T02:44:42;5.90;99.90
44271;DHT22;29963;44.594;11.368;2023-02-15T02:47:31;5.90;99.90
44271;DHT22;29963;44.594;11.368;2023-02-15T02:50:01;5.80;99.90
44271;DHT22;29963;44.594;11.368;2023-02-15T02:52:43;5.80;99.90
44271;DHT22;29963;44.594;11.368;2023-02-15T02:57:37;5.50;99.90
44271;DHT22;29963;44.594;11.368;2023-02-15T03:00:07;5.40;99.90
44271;DHT22;29963;44.594;11.368;2023-02-15T03:02:40;5.40;99.90
44271;DHT22;29963;44.594;11.368;2023-02-15T03:05:13;5.30;99.90
44271;DHT22;29963;44.594;11.368;2023-02-15T03:07:41;5.20;99.90
44271;DHT22;29963;44.594;11.368;2023-02-15T03:10:08;5.00;99.90
44271;DHT22;29963;44.594;11.368;2023-02-15T03:12:37;5.00;99.90
44271;DHT22;29963;44.594;11.368;2023-02-15T03:17:35;4.80;99.90
44271;DHT22;29963;44.594;11.368;2023-02-15T03:20:08;4.80;99.90
44271;DHT22;29963;44.594;11.368;2023-02-15T03:22:43;4.80;99.90
44271;DHT22;29963;44.594;11.368;2023-02-15T03:25:25;4.70;99.90
44271;DHT22;29963;44.594;11.368;2023-02-15T03:27:55;4.80;99.90
44271;DHT22;29963;44.594;11.368;2023-02-15T03:30:25;4.80;99.90
44271;DHT22;29963;44.594;11.368;2023-02-15T03:32:51;4.80;99.90
44271;DHT22;29963;44.594;11.368;2023-02-15T03:35:20;4.70;99.90
44271;DHT22;29963;44.594;11.368;2023-02-15T03:37:51;4.60;99.90
44271;DHT22;29963;44.594;11.368;2023-02-15T03:43:22;4.40;99.90
44271;DHT22;29963;44.594;11.368;2023-02-15T03:45:52;4.30;99.90
44271;DHT22;29963;44.594;11.368;2023-02-15T03:48:45;4.20;99.90
44271;DHT22;29963;44.594;11.368;2023-02-15T03:51:18;4.30;99.90
44271;DHT22;29963;44.594;11.368;2023-02-15T03:54:06;4.30;99.90
44271;DHT22;29963;44.594;11.368;2023-02-15T03:56:38;4.50;99.90
44271;DHT22;29963;44.594;11.368;2023-02-15T03:59:05;4.60;99.90
44271;DHT22;29963;44.594;11.368;2023-02-15T04:06:58;4.80;99.90
44271;DHT22;29963;44.594;11.368;2023-02-15T04:09:23;4.80;99.90
44271;DHT22;29963;44.594;11.368;2023-02-15T04:12:08;4.90;99.90
44271;DHT22;29963;44.594;11.368;2023-02-15T04:14:33;4.90;99.90
44271;DHT22;29963;44.594;11.368;2023-02-15T04:17:18;4.90;99.90
44271;DHT22;29963;44.594;11.368;2023-02-15T04:19:43;4.90;99.90
44271;DHT22;29963;44.594;11.368;2023-02-15T04:22:28;4.90;99.90
44271;DHT22;29963;44.594;11.368;2023-02-15T04:25:12;4.80;99.90
44271;DHT22;29963;44.594;11.368;2023-02-15T04:27:40;4.80;99.90
44271;DHT22;29963;44.594;11.368;2023-02-15T04:30:06;4.80;99.90
44271;DHT22;29963;44.594;11.368;2023-02-15T04:32:33;4.80;99.90
44271;DHT22;29963;44.594;11.368;2023-02-15T04:34:58;4.90;99.90
44271;DHT22;29963;44.594;11.368;2023-02-15T04:37:24;4.90;99.90
44271;DHT22;29963;44.594;11.368;2023-02-15T04:39:49;4.90;99.90
44271;DHT22;29963;44.594;11.368;2023-02-15T04:42:15;4.80;99.90
44271;DHT22;29963;44.594;11.368;2023-02-15T04:44:41;4.70;99.90
44271;DHT22;29963;44.594;11.368;2023-02-15T04:47:07;4.70;99.90
44271;DHT22;29963;44.594;11.368;2023-02-15T04:49:32;4.50;99.90
44271;DHT22;29963;44.594;11.368;2023-02-15T04:51:58;4.50;99.90
44271;DHT22;29963;44.594;11.368;2023-02-15T04:54:23;4.50;99.90
44271;DHT22;29963;44.594;11.368;2023-02-15T04:56:49;4.60;99.90
44271;DHT22;29963;44.594;11.368;2023-02-15T04:59:14;4.60;99.90
44271;DHT22;29963;44.594;11.368;2023-02-15T05:01:40;4.70;99.90
44271;DHT22;29963;44.594;11.368;2023-02-15T05:04:06;4.70;99.90
44271;DHT22;29963;44.594;11.368;2023-02-15T05:06:32;4.70;99.90
44271;DHT22;29963;44.594;11.368;2023-02-15T05:08:58;4.80;99.90
44271;DHT22;29963;44.594;11.368;2023-02-15T05:11:29;4.80;99.90
44271;DHT22;29963;44.594;11.368;2023-02-15T05:13:55;4.90;99.90
44271;DHT22;29963;44.594;11.368;2023-02-15T05:16:20;4.90;99.90
44271;DHT22;29963;44.594;11.368;2023-02-15T05:18:46;4.90;99.90
44271;DHT22;29963;44.594;11.368;2023-02-15T05:21:12;4.90;99.90
44271;DHT22;29963;44.594;11.368;2023-02-15T05:23:39;4.90;99.90
44271;DHT22;29963;44.594;11.368;2023-02-15T05:26:04;4.90;99.90
44271;DHT22;29963;44.594;11.368;2023-02-15T05:28:48;4.90;99.90
44271;DHT22;29963;44.594;11.368;2023-02-15T05:31:16;5.00;99.90
44271;DHT22;29963;44.594;11.368;2023-02-15T05:33:43;5.00;99.90
44271;DHT22;29963;44.594;11.368;2023-02-15T05:36:09;5.00;99.90
44271;DHT22;29963;44.594;11.368;2023-02-15T05:38:35;5.00;99.90
44271;DHT22;29963;44.594;11.368;2023-02-15T05:41:03;5.00;99.90
44271;DHT22;29963;44.594;11.368;2023-02-15T05:43:30;5.00;99.90
44271;DHT22;29963;44.594;11.368;2023-02-15T05:45:55;5.10;99.90
44271;DHT22;29963;44.594;11.368;2023-02-15T05:48:23;5.10;99.90
44271;DHT22;29963;44.594;11.368;2023-02-15T05:51:06;5.10;99.90
44271;DHT22;29963;44.594;11.368;2023-02-15T05:53:35;5.10;99.90
44271;DHT22;29963;44.594;11.368;2023-02-15T05:56:02;5.00;99.90
44271;DHT22;29963;44.594;11.368;2023-02-15T05:58:37;5.00;99.90
44271;DHT22;29963;44.594;11.368;2023-02-15T06:01:19;4.90;99.90
44271;DHT22;29963;44.594;11.368;2023-02-15T06:03:47;4.90;99.90
44271;DHT22;29963;44.594;11.368;2023-02-15T06:06:12;4.90;99.90
44271;DHT22;29963;44.594;11.368;2023-02-15T06:08:38;4.90;99.90
44271;DHT22;29963;44.594;11.368;2023-02-15T06:11:05;5.00;99.90
44271;DHT22;29963;44.594;11.368;2023-02-15T06:13:31;5.10;99.90
44271;DHT22;29963;44.594;11.368;2023-02-15T06:15:57;5.10;99.90
44271;DHT22;29963;44.594;11.368;2023-02-15T06:18:23;5.20;99.90
44271;DHT22;29963;44.594;11.368;2023-02-15T06:20:49;5.20;99.90
44271;DHT22;29963;44.594;11.368;2023-02-15T06:23:15;5.20;99.90
44271;DHT22;29963;44.594;11.368;2023-02-15T06:25:40;5.20;99.90
44271;DHT22;29963;44.594;11.368;2023-02-15T06:28:06;5.20;99.90
44271;DHT22;29963;44.594;11.368;2023-02-15T06:30:32;5.10;99.90
44271;DHT22;29963;44.594;11.368;2023-02-15T06:32:57;5.00;99.90
44271;DHT22;29963;44.594;11.368;2023-02-15T06:35:23;5.00;99.90
44271;DHT22;29963;44.594;11.368;2023-02-15T06:37:49;5.00;99.90
44271;DHT22;29963;44.594;11.368;2023-02-15T06:40:15;5.00;99.90
44271;DHT22;29963;44.594;11.368;2023-02-15T06:42:42;5.00;99.90
44271;DHT22;29963;44.594;11.368;2023-02-15T06:45:08;5.00;99.90
44271;DHT22;29963;44.594;11.368;2023-02-15T06:47:33;4.90;99.90
44271;DHT22;29963;44.594;11.368;2023-02-15T06:49:59;4.90;99.90
44271;DHT22;29963;44.594;11.368;2023-02-15T06:52:25;4.80;99.90
44271;DHT22;29963;44.594;11.368;2023-02-15T06:54:51;4.70;99.90
44271;DHT22;29963;44.594;11.368;2023-02-15T06:57:16;4.70;99.90
44271;DHT22;29963;44.594;11.368;2023-02-15T06:59:42;4.70;99.90
44271;DHT22;29963;44.594;11.368;2023-02-15T07:02:11;4.60;99.90
44271;DHT22;29963;44.594;11.368;2023-02-15T07:04:36;4.70;99.90
44271;DHT22;29963;44.594;11.368;2023-02-15T07:07:02;4.60;99.90
44271;DHT22;29963;44.594;11.368;2023-02-15T07:09:28;4.90;99.90
44271;DHT22;29963;44.594;11.368;2023-02-15T07:11:53;4.60;99.90
44271;DHT22;29963;44.594;11.368;2023-02-15T07:14:37;4.60;99.90
44271;DHT22;29963;44.594;11.368;2023-02-15T07:17:03;4.70;99.90
44271;DHT22;29963;44.594;11.368;2023-02-15T07:19:29;4.70;99.90
44271;DHT22;29963;44.594;11.368;2023-02-15T07:21:54;4.90;99.90
44271;DHT22;29963;44.594;11.368;2023-02-15T07:24:20;5.00;99.90
44271;DHT22;29963;44.594;11.368;2023-02-15T07:26:45;5.10;99.90
44271;DHT22;29963;44.594;11.368;2023-02-15T07:29:11;5.10;99.90
44271;DHT22;29963;44.594;11.368;2023-02-15T07:31:36;5.20;99.90
44271;DHT22;29963;44.594;11.368;2023-02-15T07:34:02;5.20;99.90
44271;DHT22;29963;44.594;11.368;2023-02-15T07:36:28;5.30;99.90
44271;DHT22;29963;44.594;11.368;2023-02-15T07:38:53;5.30;99.90
44271;DHT22;29963;44.594;11.368;2023-02-15T07:41:19;5.40;99.90
44271;DHT22;29963;44.594;11.368;2023-02-15T07:43:45;5.50;99.90
44271;DHT22;29963;44.594;11.368;2023-02-15T07:46:13;5.70;99.90
44271;DHT22;29963;44.594;11.368;2023-02-15T07:48:40;5.80;99.90
44271;DHT22;29963;44.594;11.368;2023-02-15T07:51:08;5.90;99.90
44271;DHT22;29963;44.594;11.368;2023-02-15T07:53:35;6.10;99.90
44271;DHT22;29963;44.594;11.368;2023-02-15T07:56:03;6.20;99.90
44271;DHT22;29963;44.594;11.368;2023-02-15T07:58:32;6.30;99.90
44271;DHT22;29963;44.594;11.368;2023-02-15T08:01:21;6.40;99.90
44271;DHT22;29963;44.594;11.368;2023-02-15T08:03:48;6.50;99.90
44271;DHT22;29963;44.594;11.368;2023-02-15T08:06:14;6.60;99.90
44271;DHT22;29963;44.594;11.368;2023-02-15T08:08:40;6.70;99.90
44271;DHT22;29963;44.594;11.368;2023-02-15T08:13:57;6.90;99.90
44271;DHT22;29963;44.594;11.368;2023-02-15T08:19:08;7.00;99.90
44271;DHT22;29963;44.594;11.368;2023-02-15T08:21:35;7.10;99.90
44271;DHT22;29963;44.594;11.368;2023-02-15T08:24:02;7.30;99.90
44271;DHT22;29963;44.594;11.368;2023-02-15T08:26:29;7.40;99.90
44271;DHT22;29963;44.594;11.368;2023-02-15T08:28:55;7.50;99.90
44271;DHT22;29963;44.594;11.368;2023-02-15T08:31:21;7.60;99.90
44271;DHT22;29963;44.594;11.368;2023-02-15T08:33:48;7.80;99.90
44271;DHT22;29963;44.594;11.368;2023-02-15T08:36:16;7.90;99.90
44271;DHT22;29963;44.594;11.368;2023-02-15T08:38:43;8.00;99.90
44271;DHT22;29963;44.594;11.368;2023-02-15T08:41:14;8.10;99.90
44271;DHT22;29963;44.594;11.368;2023-02-15T08:43:41;8.20;99.90
44271;DHT22;29963;44.594;11.368;2023-02-15T08:46:08;8.40;99.90
44271;DHT22;29963;44.594;11.368;2023-02-15T08:48:33;8.40;99.90
44271;DHT22;29963;44.594;11.368;2023-02-15T08:51:07;8.60;99.90
44271;DHT22;29963;44.594;11.368;2023-02-15T08:53:33;8.70;99.90
44271;DHT22;29963;44.594;11.368;2023-02-15T08:55:59;8.90;99.90
44271;DHT22;29963;44.594;11.368;2023-02-15T08:58:25;8.90;99.90
44271;DHT22;29963;44.594;11.368;2023-02-15T09:00:51;9.00;99.90
44271;DHT22;29963;44.594;11.368;2023-02-15T09:03:20;9.00;99.90
44271;DHT22;29963;44.594;11.368;2023-02-15T09:05:46;9.10;99.90
44271;DHT22;29963;44.594;11.368;2023-02-15T09:08:11;9.20;99.90
44271;DHT22;29963;44.594;11.368;2023-02-15T09:10:37;9.30;99.90
44271;DHT22;29963;44.594;11.368;2023-02-15T09:13:03;9.40;99.90
44271;DHT22;29963;44.594;11.368;2023-02-15T09:15:28;9.40;99.90
44271;DHT22;29963;44.594;11.368;2023-02-15T09:17:54;9.50;99.90
44271;DHT22;29963;44.594;11.368;2023-02-15T09:20:19;9.60;99.90
44271;DHT22;29963;44.594;11.368;2023-02-15T09:22:45;9.70;99.90
44271;DHT22;29963;44.594;11.368;2023-02-15T09:25:11;9.70;99.90
44271;DHT22;29963;44.594;11.368;2023-02-15T09:27:39;9.80;99.90
44271;DHT22;29963;44.594;11.368;2023-02-15T09:30:05;9.90;99.90
44271;DHT22;29963;44.594;11.368;2023-02-15T09:32:31;10.00;99.90
44271;DHT22;29963;44.594;11.368;2023-02-15T09:34:57;10.20;99.90
44271;DHT22;29963;44.594;11.368;2023-02-15T09:37:22;10.30;99.90
44271;DHT22;29963;44.594;11.368;2023-02-15T09:39:48;10.30;99.90
44271;DHT22;29963;44.594;11.368;2023-02-15T10:07:28;11.00;99.90
44271;DHT22;29963;44.594;11.368;2023-02-15T10:13:01;11.20;99.90
44271;DHT22;29963;44.594;11.368;2023-02-15T10:20:55;11.40;99.90
44271;DHT22;29963;44.594;11.368;2023-02-15T10:28:53;11.60;99.90
44271;DHT22;29963;44.594;11.368;2023-02-15T10:31:47;11.70;99.90
44271;DHT22;29963;44.594;11.368;2023-02-15T10:34:38;11.80;99.90
44271;DHT22;29963;44.594;11.368;2023-02-15T10:40:10;11.90;99.90
44271;DHT22;29963;44.594;11.368;2023-02-15T10:43:02;11.90;99.90
44271;DHT22;29963;44.594;11.368;2023-02-15T10:45:53;12.00;99.90
44271;DHT22;29963;44.594;11.368;2023-02-15T10:50:59;12.20;99.90
44271;DHT22;29963;44.594;11.368;2023-02-15T10:53:42;12.30;99.90
44271;DHT22;29963;44.594;11.368;2023-02-15T10:58:57;12.30;99.90
44271;DHT22;29963;44.594;11.368;2023-02-15T11:06:56;12.60;99.90
44271;DHT22;29963;44.594;11.368;2023-02-15T11:09:29;12.70;99.90
44271;DHT22;29963;44.594;11.368;2023-02-15T11:11:59;12.70;99.90
44271;DHT22;29963;44.594;11.368;2023-02-15T11:17:30;12.80;99.90
44271;DHT22;29963;44.594;11.368;2023-02-15T11:20:25;12.90;99.90
44271;DHT22;29963;44.594;11.368;2023-02-15T11:22:53;13.00;99.90
44271;DHT22;29963;44.594;11.368;2023-02-15T11:25:26;13.10;99.90
44271;DHT22;29963;44.594;11.368;2023-02-15T11:27:54;13.20;99.90
44271;DHT22;29963;44.594;11.368;2023-02-15T11:30:23;13.30;99.90
44271;DHT22;29963;44.594;11.368;2023-02-15T11:32:55;13.30;99.90
44271;DHT22;29963;44.594;11.368;2023-02-15T11:35:29;13.30;99.90
44271;DHT22;29963;44.594;11.368;2023-02-15T11:38:17;13.30;99.90
44271;DHT22;29963;44.594;11.368;2023-02-15T11:40:54;13.40;99.90
44271;DHT22;29963;44.594;11.368;2023-02-15T11:43:29;13.40;99.90
44271;DHT22;29963;44.594;11.368;2023-02-15T11:45:56;13.40;99.90
44271;DHT22;29963;44.594;11.368;2023-02-15T11:48:22;13.50;99.90
44271;DHT22;29963;44.594;11.368;2023-02-15T11:50:48;13.60;99.90
44271;DHT22;29963;44.594;11.368;2023-02-15T11:53:16;13.70;99.90
44271;DHT22;29963;44.594;11.368;2023-02-15T11:55:48;13.70;99.90
44271;DHT22;29963;44.594;11.368;2023-02-15T12:00:50;13.80;99.90
44271;DHT22;29963;44.594;11.368;2023-02-15T12:06:11;13.90;99.90
44271;DHT22;29963;44.594;11.368;2023-02-15T12:08:41;14.00;99.90
44271;DHT22;29963;44.594;11.368;2023-02-15T12:11:13;14.10;99.20
44271;DHT22;29963;44.594;11.368;2023-02-15T12:14:05;14.10;98.70
44271;DHT22;29963;44.594;11.368;2023-02-15T12:16:55;14.20;98.60
44271;DHT22;29963;44.594;11.368;2023-02-15T12:19:38;14.20;98.20
44271;DHT22;29963;44.594;11.368;2023-02-15T12:22:06;14.20;98.50
44271;DHT22;29963;44.594;11.368;2023-02-15T12:24:47;14.30;98.70
44271;DHT22;29963;44.594;11.368;2023-02-15T12:27:14;14.40;98.40
44271;DHT22;29963;44.594;11.368;2023-02-15T12:30:37;14.40;98.10
44271;DHT22;29963;44.594;11.368;2023-02-15T12:32:52;14.50;97.90
44271;DHT22;29963;44.594;11.368;2023-02-15T12:35:28;14.50;98.10
44271;DHT22;29963;44.594;11.368;2023-02-15T12:38:26;14.50;98.20
44271;DHT22;29963;44.594;11.368;2023-02-15T12:41:02;14.60;98.60
44271;DHT22;29963;44.594;11.368;2023-02-15T12:43:38;14.60;97.20
44271;DHT22;29963;44.594;11.368;2023-02-15T12:46:19;14.70;97.10
44271;DHT22;29963;44.594;11.368;2023-02-15T12:48:45;14.80;97.00
44271;DHT22;29963;44.594;11.368;2023-02-15T12:51:14;14.80;96.60
44271;DHT22;29963;44.594;11.368;2023-02-15T12:53:41;14.90;96.40
44271;DHT22;29963;44.594;11.368;2023-02-15T12:56:09;14.90;96.10
44271;DHT22;29963;44.594;11.368;2023-02-15T12:58:38;14.90;95.50
44271;DHT22;29963;44.594;11.368;2023-02-15T13:01:24;15.10;96.10
44271;DHT22;29963;44.594;11.368;2023-02-15T13:06:23;15.20;95.70
44271;DHT22;29963;44.594;11.368;2023-02-15T13:08:51;15.30;95.00
44271;DHT22;29963;44.594;11.368;2023-02-15T13:11:29;15.40;95.10
44271;DHT22;29963;44.594;11.368;2023-02-15T13:14:01;15.50;95.20
44271;DHT22;29963;44.594;11.368;2023-02-15T13:16:34;15.60;95.10
44271;DHT22;29963;44.594;11.368;2023-02-15T13:19:09;15.70;95.60
44271;DHT22;29963;44.594;11.368;2023-02-15T13:21:40;15.70;95.10
44271;DHT22;29963;44.594;11.368;2023-02-15T13:26:47;15.80;95.90
44271;DHT22;29963;44.594;11.368;2023-02-15T13:29:24;15.90;96.00
44271;DHT22;29963;44.594;11.368;2023-02-15T13:31:51;16.10;96.40
44271;DHT22;29963;44.594;11.368;2023-02-15T13:34:36;16.20;96.10
44271;DHT22;29963;44.594;11.368;2023-02-15T13:38:07;16.30;95.40
44271;DHT22;29963;44.594;11.368;2023-02-15T13:40:21;16.40;94.90
44271;DHT22;29963;44.594;11.368;2023-02-15T13:42:59;16.60;94.60
44271;DHT22;29963;44.594;11.368;2023-02-15T14:02:38;17.40;91.80
44271;DHT22;29963;44.594;11.368;2023-02-15T14:12:23;17.80;91.90
44271;DHT22;29963;44.594;11.368;2023-02-15T14:14:40;18.00;91.60
44271;DHT22;29963;44.594;11.368;2023-02-15T14:26:01;18.90;87.50
44271;DHT22;29963;44.594;11.368;2023-02-15T14:31:06;19.50;87.40
44271;DHT22;29963;44.594;11.368;2023-02-15T14:33:38;20.30;86.70
44271;DHT22;29963;44.594;11.368;2023-02-15T14:36:07;21.50;84.50
44271;DHT22;29963;44.594;11.368;2023-02-15T14:38:51;22.70;77.30
44271;DHT22;29963;44.594;11.368;2023-02-15T14:44:26;24.30;68.20
44271;DHT22;29963;44.594;11.368;2023-02-15T14:47:05;25.00;65.60
44271;DHT22;29963;44.594;11.368;2023-02-15T14:49:39;25.30;61.50
44271;DHT22;29963;44.594;11.368;2023-02-15T15:05:06;28.10;53.00
44271;DHT22;29963;44.594;11.368;2023-02-15T15:12:50;27.90;52.20
44271;DHT22;29963;44.594;11.368;2023-02-15T15:18:08;27.60;50.30
44271;DHT22;29963;44.594;11.368;2023-02-15T15:20:46;27.60;49.90
44271;DHT22;29963;44.594;11.368;2023-02-15T15:33:55;27.60;47.60
44271;DHT22;29963;44.594;11.368;2023-02-15T15:48:41;27.00;48.30
44271;DHT22;29963;44.594;11.368;2023-02-15T15:50:42;26.90;48.20
44271;DHT22;29963;44.594;11.368;2023-02-15T15:53:21;26.90;49.00
44271;DHT22;29963;44.594;11.368;2023-02-15T15:55:50;26.70;49.30
44271;DHT22;29963;44.594;11.368;2023-02-15T15:58:19;26.50;49.10
44271;DHT22;29963;44.594;11.368;2023-02-15T16:00:54;26.30;49.40
44271;DHT22;29963;44.594;11.368;2023-02-15T16:03:26;26.00;49.50
44271;DHT22;29963;44.594;11.368;2023-02-15T16:05:52;25.60;50.30
44271;DHT22;29963;44.594;11.368;2023-02-15T16:08:34;25.30;50.40
44271;DHT22;29963;44.594;11.368;2023-02-15T16:11:09;24.90;50.80
44271;DHT22;29963;44.594;11.368;2023-02-15T16:13:35;24.50;51.50
44271;DHT22;29963;44.594;11.368;2023-02-15T16:16:01;24.20;52.20
44271;DHT22;29963;44.594;11.368;2023-02-15T16:18:27;23.70;52.60
44271;DHT22;29963;44.594;11.368;2023-02-15T16:20:58;23.20;53.50
44271;DHT22;29963;44.594;11.368;2023-02-15T16:29:14;22.00;55.90
44271;DHT22;29963;44.594;11.368;2023-02-15T16:31:40;21.50;56.80
44271;DHT22;29963;44.594;11.368;2023-02-15T16:34:14;21.00;58.10
44271;DHT22;29963;44.594;11.368;2023-02-15T16:36:41;20.40;58.80
44271;DHT22;29963;44.594;11.368;2023-02-15T16:39:10;19.90;60.00
44271;DHT22;29963;44.594;11.368;2023-02-15T16:41:39;19.40;61.50
44271;DHT22;29963;44.594;11.368;2023-02-15T16:44:15;19.00;62.00
44271;DHT22;29963;44.594;11.368;2023-02-15T16:46:45;18.60;63.80
44271;DHT22;29963;44.594;11.368;2023-02-15T16:49:23;18.30;66.50
44271;DHT22;29963;44.594;11.368;2023-02-15T16:51:59;18.00;66.70
44271;DHT22;29963;44.594;11.368;2023-02-15T16:54:25;17.70;68.00
44271;DHT22;29963;44.594;11.368;2023-02-15T16:56:52;17.50;68.70
44271;DHT22;29963;44.594;11.368;2023-02-15T16:59:36;17.30;69.80
44271;DHT22;29963;44.594;11.368;2023-02-15T17:02:15;17.10;70.80
44271;DHT22;29963;44.594;11.368;2023-02-15T17:04:41;16.90;70.80
44271;DHT22;29963;44.594;11.368;2023-02-15T17:07:18;16.80;71.70
44271;DHT22;29963;44.594;11.368;2023-02-15T17:09:56;16.70;73.10
44271;DHT22;29963;44.594;11.368;2023-02-15T17:18:24;16.30;75.60
44271;DHT22;29963;44.594;11.368;2023-02-15T17:21:13;16.10;75.70
44271;DHT22;29963;44.594;11.368;2023-02-15T17:23:47;16.00;76.70
44271;DHT22;29963;44.594;11.368;2023-02-15T17:28:54;15.80;77.90
44271;DHT22;29963;44.594;11.368;2023-02-15T17:31:24;15.70;78.60
44271;DHT22;29963;44.594;11.368;2023-02-15T17:33:51;15.70;79.10
44271;DHT22;29963;44.594;11.368;2023-02-15T17:36:23;15.50;79.40
44271;DHT22;29963;44.594;11.368;2023-02-15T17:39:19;15.50;80.90
44271;DHT22;29963;44.594;11.368;2023-02-15T17:41:45;15.40;80.70
44271;DHT22;29963;44.594;11.368;2023-02-15T17:44:12;15.30;81.00
44271;DHT22;29963;44.594;11.368;2023-02-15T17:46:41;15.20;81.40
44271;DHT22;29963;44.594;11.368;2023-02-15T17:49:24;15.10;81.80
44271;DHT22;29963;44.594;11.368;2023-02-15T17:51:52;15.00;82.70
44271;DHT22;29963;44.594;11.368;2023-02-15T17:54:17;15.00;82.80
44271;DHT22;29963;44.594;11.368;2023-02-15T17:57:01;14.90;82.10
44271;DHT22;29963;44.594;11.368;2023-02-15T17:59:30;14.80;83.10
44271;DHT22;29963;44.594;11.368;2023-02-15T18:01:56;14.80;83.10
44271;DHT22;29963;44.594;11.368;2023-02-15T18:04:40;14.70;83.40
44271;DHT22;29963;44.594;11.368;2023-02-15T18:07:25;14.60;84.20
44271;DHT22;29963;44.594;11.368;2023-02-15T18:10:17;14.60;84.50
44271;DHT22;29963;44.594;11.368;2023-02-15T18:13:02;14.50;84.60
44271;DHT22;29963;44.594;11.368;2023-02-15T18:15:28;14.50;85.00
44271;DHT22;29963;44.594;11.368;2023-02-15T18:17:54;14.40;85.50
44271;DHT22;29963;44.594;11.368;2023-02-15T18:20:25;14.40;85.90
44271;DHT22;29963;44.594;11.368;2023-02-15T18:22:53;14.30;85.80
44271;DHT22;29963;44.594;11.368;2023-02-15T18:25:20;14.30;86.20
44271;DHT22;29963;44.594;11.368;2023-02-15T18:27:47;14.20;86.10
44271;DHT22;29963;44.594;11.368;2023-02-15T18:30:18;14.20;86.60
44271;DHT22;29963;44.594;11.368;2023-02-15T18:32:45;14.20;86.80
44271;DHT22;29963;44.594;11.368;2023-02-15T18:35:16;14.10;87.10
44271;DHT22;29963;44.594;11.368;2023-02-15T18:37:44;14.10;87.90
44271;DHT22;29963;44.594;11.368;2023-02-15T18:40:21;14.00;88.60
44271;DHT22;29963;44.594;11.368;2023-02-15T18:42:47;13.90;89.00
44271;DHT22;29963;44.594;11.368;2023-02-15T18:45:26;13.80;89.60
44271;DHT22;29963;44.594;11.368;2023-02-15T18:47:59;13.70;89.90
44271;DHT22;29963;44.594;11.368;2023-02-15T18:50:30;13.60;90.20
44271;DHT22;29963;44.594;11.368;2023-02-15T18:52:57;13.50;90.50
44271;DHT22;29963;44.594;11.368;2023-02-15T18:55:25;13.50;90.80
44271;DHT22;29963;44.594;11.368;2023-02-15T18:57:54;13.40;90.90
44271;DHT22;29963;44.594;11.368;2023-02-15T19:00:25;13.30;91.10
44271;DHT22;29963;44.594;11.368;2023-02-15T19:02:52;13.20;91.10
44271;DHT22;29963;44.594;11.368;2023-02-15T19:05:19;13.10;91.20
44271;DHT22;29963;44.594;11.368;2023-02-15T19:07:45;13.10;91.30
44271;DHT22;29963;44.594;11.368;2023-02-15T19:10:25;13.00;91.50